sensor_id;sensor_type;location;lat;lon;timestamp;P1;P2;P0
73565;PMS5003;61846;52.970;-3.168;2023-09-30T00:00:17;8;6;
73565;PMS5003;61846;52.970;-3.168;2023-09-30T00:02:43;6;5;
73565;PMS5003;61846;52.970;-3.168;2023-09-30T00:05:08;7;4;
73565;PMS5003;61846;52.970;-3.168;2023-09-30T00:07:33;8;6;
73565;PMS5003;61846;52.970;-3.168;2023-09-30T00:09:58;9;4;
73565;PMS5003;61846;52.970;-3.168;2023-09-30T00:12:24;6;5;
73565;PMS5003;61846;52.970;-3.168;2023-09-30T00:14:49;4;4;
73565;PMS5003;61846;52.970;-3.168;2023-09-30T00:17:15;10;4;
73565;PMS5003;61846;52.970;-3.168;2023-09-30T00:19:40;6;3;
73565;PMS5003;61846;52.970;-3.168;2023-09-30T00:22:06;8;5;
73565;PMS5003;61846;52.970;-3.168;2023-09-30T00:24:31;9;5;
73565;PMS5003;61846;52.970;-3.168;2023-09-30T00:26:56;5;2;
73565;PMS5003;61846;52.970;-3.168;2023-09-30T00:29:22;4;3;
73565;PMS5003;61846;52.970;-3.168;2023-09-30T00:31:47;2;2;
73565;PMS5003;61846;52.970;-3.168;2023-09-30T00:34:13;5;3;
73565;PMS5003;61846;52.970;-3.168;2023-09-30T00:36:38;7;5;
73565;PMS5003;61846;52.970;-3.168;2023-09-30T00:39:04;6;4;
73565;PMS5003;61846;52.970;-3.168;2023-09-30T00:41:29;10;5;
73565;PMS5003;61846;52.970;-3.168;2023-09-30T00:43:54;14;3;
73565;PMS5003;61846;52.970;-3.168;2023-09-30T00:46:23;4;4;
73565;PMS5003;61846;52.970;-3.168;2023-09-30T00:48:45;4;3;
73565;PMS5003;61846;52.970;-3.168;2023-09-30T00:51:11;9;6;
73565;PMS5003;61846;52.970;-3.168;2023-09-30T00:53:36;6;6;
73565;PMS5003;61846;52.970;-3.168;2023-09-30T00:56:02;9;6;
73565;PMS5003;61846;52.970;-3.168;2023-09-30T00:58:28;10;5;
73565;PMS5003;61846;52.970;-3.168;2023-09-30T01:00:53;8;5;
73565;PMS5003;61846;52.970;-3.168;2023-09-30T01:03:19;6;6;
73565;PMS5003;61846;52.970;-3.168;2023-09-30T01:05:44;10;6;
73565;PMS5003;61846;52.970;-3.168;2023-09-30T01:08:09;11;9;
73565;PMS5003;61846;52.970;-3.168;2023-09-30T01:10:35;14;14;
73565;PMS5003;61846;52.970;-3.168;2023-09-30T01:13:00;27;16;
73565;PMS5003;61846;52.970;-3.168;2023-09-30T01:15:25;9;7;
73565;PMS5003;61846;52.970;-3.168;2023-09-30T01:17:51;12;8;
73565;PMS5003;61846;52.970;-3.168;2023-09-30T01:20:16;13;7;
73565;PMS5003;61846;52.970;-3.168;2023-09-30T01:22:42;5;5;
73565;PMS5003;61846;52.970;-3.168;2023-09-30T01:25:07;5;3;
73565;PMS5003;61846;52.970;-3.168;2023-09-30T01:27:32;7;5;
73565;PMS5003;61846;52.970;-3.168;2023-09-30T01:29:58;8;4;
73565;PMS5003;61846;52.970;-3.168;2023-09-30T01:32:23;3;3;
73565;PMS5003;61846;52.970;-3.168;2023-09-30T01:34:49;6;6;
73565;PMS5003;61846;52.970;-3.168;2023-09-30T01:37:14;6;3;
73565;PMS5003;61846;52.970;-3.168;2023-09-30T01:39:40;3;3;
73565;PMS5003;61846;52.970;-3.168;2023-09-30T01:42:05;4;2;
73565;PMS5003;61846;52.970;-3.168;2023-09-30T01:44:30;7;4;
73565;PMS5003;61846;52.970;-3.168;2023-09-30T01:46:55;2;2;
73565;PMS5003;61846;52.970;-3.168;2023-09-30T01:49:21;3;3;
73565;PMS5003;61846;52.970;-3.168;2023-09-30T01:51:46;5;2;
73565;PMS5003;61846;52.970;-3.168;2023-09-30T01:54:12;3;2;
73565;PMS5003;61846;52.970;-3.168;2023-09-30T01:56:37;6;4;
73565;PMS5003;61846;52.970;-3.168;2023-09-30T01:59:03;2;2;
73565;PMS5003;61846;52.970;-3.168;2023-09-30T02:01:28;3;2;
73565;PMS5003;61846;52.970;-3.168;2023-09-30T02:03:54;6;2;
73565;PMS5003;61846;52.970;-3.168;2023-09-30T02:06:19;2;2;
73565;PMS5003;61846;52.970;-3.168;2023-09-30T02:08:45;6;3;
73565;PMS5003;61846;52.970;-3.168;2023-09-30T02:11:10;4;3;
73565;PMS5003;61846;52.970;-3.168;2023-09-30T02:13:36;4;3;
73565;PMS5003;61846;52.970;-3.168;2023-09-30T02:16:01;5;3;
73565;PMS5003;61846;52.970;-3.168;2023-09-30T02:18:27;5;3;
73565;PMS5003;61846;52.970;-3.168;2023-09-30T02:20:52;3;3;
73565;PMS5003;61846;52.970;-3.168;2023-09-30T02:23:18;1;1;
73565;PMS5003;61846;52.970;-3.168;2023-09-30T02:25:43;4;3;
73565;PMS5003;61846;52.970;-3.168;2023-09-30T02:28:09;5;5;
73565;PMS5003;61846;52.970;-3.168;2023-09-30T02:30:34;6;3;
73565;PMS5003;61846;52.970;-3.168;2023-09-30T02:33:00;4;2;
73565;PMS5003;61846;52.970;-3.168;2023-09-30T02:35:25;3;2;
73565;PMS5003;61846;52.970;-3.168;2023-09-30T02:37:50;2;2;
73565;PMS5003;61846;52.970;-3.168;2023-09-30T02:40:16;3;3;
73565;PMS5003;61846;52.970;-3.168;2023-09-30T02:42:42;2;2;
73565;PMS5003;61846;52.970;-3.168;2023-09-30T02:45:07;3;2;
73565;PMS5003;61846;52.970;-3.168;2023-09-30T02:47:33;4;2;
73565;PMS5003;61846;52.970;-3.168;2023-09-30T02:49:58;7;3;
73565;PMS5003;61846;52.970;-3.168;2023-09-30T02:52:23;2;2;
73565;PMS5003;61846;52.970;-3.168;2023-09-30T02:54:48;6;3;
73565;PMS5003;61846;52.970;-3.168;2023-09-30T02:57:14;6;5;
73565;PMS5003;61846;52.970;-3.168;2023-09-30T02:59:39;5;3;
73565;PMS5003;61846;52.970;-3.168;2023-09-30T03:02:05;4;3;
73565;PMS5003;61846;52.970;-3.168;2023-09-30T03:04:30;4;3;
73565;PMS5003;61846;52.970;-3.168;2023-09-30T03:06:56;2;2;
73565;PMS5003;61846;52.970;-3.168;2023-09-30T03:09:21;7;3;
73565;PMS5003;61846;52.970;-3.168;2023-09-30T03:11:47;6;1;
73565;PMS5003;61846;52.970;-3.168;2023-09-30T03:14:12;7;3;
73565;PMS5003;61846;52.970;-3.168;2023-09-30T03:16:38;4;1;
73565;PMS5003;61846;52.970;-3.168;2023-09-30T03:19:04;4;4;
73565;PMS5003;61846;52.970;-3.168;2023-09-30T03:21:29;4;4;
73565;PMS5003;61846;52.970;-3.168;2023-09-30T03:23:54;4;2;
73565;PMS5003;61846;52.970;-3.168;2023-09-30T03:26:19;3;2;
73565;PMS5003;61846;52.970;-3.168;2023-09-30T03:28:45;2;1;
73565;PMS5003;61846;52.970;-3.168;2023-09-30T03:31:19;3;3;
73565;PMS5003;61846;52.970;-3.168;2023-09-30T03:33:36;4;2;
73565;PMS5003;61846;52.970;-3.168;2023-09-30T03:36:01;4;3;
73565;PMS5003;61846;52.970;-3.168;2023-09-30T03:38:27;3;2;
73565;PMS5003;61846;52.970;-3.168;2023-09-30T03:40:52;3;3;
73565;PMS5003;61846;52.970;-3.168;2023-09-30T03:43:18;2;2;
73565;PMS5003;61846;52.970;-3.168;2023-09-30T03:45:43;3;2;
73565;PMS5003;61846;52.970;-3.168;2023-09-30T03:48:08;4;2;
73565;PMS5003;61846;52.970;-3.168;2023-09-30T03:50:33;14;3;
73565;PMS5003;61846;52.970;-3.168;2023-09-30T03:53:01;3;2;
73565;PMS5003;61846;52.970;-3.168;2023-09-30T03:55:24;3;2;
73565;PMS5003;61846;52.970;-3.168;2023-09-30T03:57:50;4;3;
73565;PMS5003;61846;52.970;-3.168;2023-09-30T04:00:15;1;1;
73565;PMS5003;61846;52.970;-3.168;2023-09-30T04:02:41;3;2;
73565;PMS5003;61846;52.970;-3.168;2023-09-30T04:05:06;3;2;
73565;PMS5003;61846;52.970;-3.168;2023-09-30T04:07:31;2;2;
73565;PMS5003;61846;52.970;-3.168;2023-09-30T04:09:57;3;2;
73565;PMS5003;61846;52.970;-3.168;2023-09-30T04:12:22;4;3;
73565;PMS5003;61846;52.970;-3.168;2023-09-30T04:14:48;5;5;
73565;PMS5003;61846;52.970;-3.168;2023-09-30T04:17:13;3;2;
73565;PMS5003;61846;52.970;-3.168;2023-09-30T04:19:39;4;3;
73565;PMS5003;61846;52.970;-3.168;2023-09-30T04:22:04;6;3;
73565;PMS5003;61846;52.970;-3.168;2023-09-30T04:24:29;6;2;
73565;PMS5003;61846;52.970;-3.168;2023-09-30T04:26:55;4;2;
73565;PMS5003;61846;52.970;-3.168;2023-09-30T04:29:20;6;4;
73565;PMS5003;61846;52.970;-3.168;2023-09-30T04:31:46;2;2;
73565;PMS5003;61846;52.970;-3.168;2023-09-30T04:34:11;3;3;
73565;PMS5003;61846;52.970;-3.168;2023-09-30T04:36:36;2;2;
73565;PMS5003;61846;52.970;-3.168;2023-09-30T04:39:02;8;6;
73565;PMS5003;61846;52.970;-3.168;2023-09-30T04:41:27;8;7;
73565;PMS5003;61846;52.970;-3.168;2023-09-30T04:43:53;9;6;
73565;PMS5003;61846;52.970;-3.168;2023-09-30T04:46:18;11;5;
73565;PMS5003;61846;52.970;-3.168;2023-09-30T04:48:43;21;9;
73565;PMS5003;61846;52.970;-3.168;2023-09-30T04:51:09;14;9;
73565;PMS5003;61846;52.970;-3.168;2023-09-30T04:53:35;10;7;
73565;PMS5003;61846;52.970;-3.168;2023-09-30T04:56:00;14;8;
73565;PMS5003;61846;52.970;-3.168;2023-09-30T04:58:26;10;4;
73565;PMS5003;61846;52.970;-3.168;2023-09-30T05:00:51;8;6;
73565;PMS5003;61846;52.970;-3.168;2023-09-30T05:03:16;6;6;
73565;PMS5003;61846;52.970;-3.168;2023-09-30T05:05:42;4;4;
73565;PMS5003;61846;52.970;-3.168;2023-09-30T05:08:07;7;5;
73565;PMS5003;61846;52.970;-3.168;2023-09-30T05:10:33;4;4;
73565;PMS5003;61846;52.970;-3.168;2023-09-30T05:13:03;4;4;
73565;PMS5003;61846;52.970;-3.168;2023-09-30T05:15:24;7;6;
73565;PMS5003;61846;52.970;-3.168;2023-09-30T05:17:49;5;5;
73565;PMS5003;61846;52.970;-3.168;2023-09-30T05:20:15;8;5;
73565;PMS5003;61846;52.970;-3.168;2023-09-30T05:22:39;14;8;
73565;PMS5003;61846;52.970;-3.168;2023-09-30T05:25:05;9;4;
73565;PMS5003;61846;52.970;-3.168;2023-09-30T05:27:31;4;3;
73565;PMS5003;61846;52.970;-3.168;2023-09-30T05:29:56;9;3;
73565;PMS5003;61846;52.970;-3.168;2023-09-30T05:32:22;5;4;
73565;PMS5003;61846;52.970;-3.168;2023-09-30T05:34:47;3;2;
73565;PMS5003;61846;52.970;-3.168;2023-09-30T05:37:13;2;2;
73565;PMS5003;61846;52.970;-3.168;2023-09-30T05:39:38;6;5;
73565;PMS5003;61846;52.970;-3.168;2023-09-30T05:42:04;5;2;
73565;PMS5003;61846;52.970;-3.168;2023-09-30T05:44:29;5;4;
73565;PMS5003;61846;52.970;-3.168;2023-09-30T05:46:55;3;3;
73565;PMS5003;61846;52.970;-3.168;2023-09-30T05:49:20;8;4;
73565;PMS5003;61846;52.970;-3.168;2023-09-30T05:51:45;4;3;
73565;PMS5003;61846;52.970;-3.168;2023-09-30T05:54:11;3;2;
73565;PMS5003;61846;52.970;-3.168;2023-09-30T05:56:37;3;3;
73565;PMS5003;61846;52.970;-3.168;2023-09-30T05:59:02;2;2;
73565;PMS5003;61846;52.970;-3.168;2023-09-30T06:01:27;4;4;
73565;PMS5003;61846;52.970;-3.168;2023-09-30T06:03:53;2;1;
73565;PMS5003;61846;52.970;-3.168;2023-09-30T06:06:18;2;2;
73565;PMS5003;61846;52.970;-3.168;2023-09-30T06:08:44;2;2;
73565;PMS5003;61846;52.970;-3.168;2023-09-30T06:13:35;1;1;
73565;PMS5003;61846;52.970;-3.168;2023-09-30T06:16:00;10;5;
73565;PMS5003;61846;52.970;-3.168;2023-09-30T06:18:26;4;4;
73565;PMS5003;61846;52.970;-3.168;2023-09-30T06:20:51;5;5;
73565;PMS5003;61846;52.970;-3.168;2023-09-30T06:23:17;5;5;
73565;PMS5003;61846;52.970;-3.168;2023-09-30T06:25:43;4;2;
73565;PMS5003;61846;52.970;-3.168;2023-09-30T06:28:08;5;4;
73565;PMS5003;61846;52.970;-3.168;2023-09-30T06:30:33;3;3;
73565;PMS5003;61846;52.970;-3.168;2023-09-30T06:32:59;6;3;
73565;PMS5003;61846;52.970;-3.168;2023-09-30T06:35:24;3;3;
73565;PMS5003;61846;52.970;-3.168;2023-09-30T06:37:50;7;6;
73565;PMS5003;61846;52.970;-3.168;2023-09-30T06:40:15;3;3;
73565;PMS5003;61846;52.970;-3.168;2023-09-30T06:42:40;3;2;
73565;PMS5003;61846;52.970;-3.168;2023-09-30T06:45:06;5;3;
73565;PMS5003;61846;52.970;-3.168;2023-09-30T06:47:32;3;3;
73565;PMS5003;61846;52.970;-3.168;2023-09-30T06:49:57;4;4;
73565;PMS5003;61846;52.970;-3.168;2023-09-30T06:52:22;3;3;
73565;PMS5003;61846;52.970;-3.168;2023-09-30T06:54:48;6;5;
73565;PMS5003;61846;52.970;-3.168;2023-09-30T06:57:13;6;6;
73565;PMS5003;61846;52.970;-3.168;2023-09-30T06:59:39;7;7;
73565;PMS5003;61846;52.970;-3.168;2023-09-30T07:02:04;10;9;
73565;PMS5003;61846;52.970;-3.168;2023-09-30T07:04:30;6;5;
73565;PMS5003;61846;52.970;-3.168;2023-09-30T07:06:55;8;8;
73565;PMS5003;61846;52.970;-3.168;2023-09-30T07:09:20;5;4;
73565;PMS5003;61846;52.970;-3.168;2023-09-30T07:11:46;2;1;
73565;PMS5003;61846;52.970;-3.168;2023-09-30T07:14:11;4;4;
73565;PMS5003;61846;52.970;-3.168;2023-09-30T07:16:37;4;4;
73565;PMS5003;61846;52.970;-3.168;2023-09-30T07:19:02;1;1;
73565;PMS5003;61846;52.970;-3.168;2023-09-30T07:21:28;4;2;
73565;PMS5003;61846;52.970;-3.168;2023-09-30T07:23:53;4;4;
73565;PMS5003;61846;52.970;-3.168;2023-09-30T07:26:22;2;2;
73565;PMS5003;61846;52.970;-3.168;2023-09-30T07:28:44;7;6;
73565;PMS5003;61846;52.970;-3.168;2023-09-30T07:31:09;7;5;
73565;PMS5003;61846;52.970;-3.168;2023-09-30T07:33:35;6;6;
73565;PMS5003;61846;52.970;-3.168;2023-09-30T07:36:00;3;3;
73565;PMS5003;61846;52.970;-3.168;2023-09-30T07:38:26;4;3;
73565;PMS5003;61846;52.970;-3.168;2023-09-30T07:40:51;5;3;
73565;PMS5003;61846;52.970;-3.168;2023-09-30T07:43:17;2;2;
73565;PMS5003;61846;52.970;-3.168;2023-09-30T07:45:42;5;5;
73565;PMS5003;61846;52.970;-3.168;2023-09-30T07:48:07;5;3;
73565;PMS5003;61846;52.970;-3.168;2023-09-30T07:50:33;7;5;
73565;PMS5003;61846;52.970;-3.168;2023-09-30T07:52:58;5;5;
73565;PMS5003;61846;52.970;-3.168;2023-09-30T07:55:23;16;6;
73565;PMS5003;61846;52.970;-3.168;2023-09-30T07:57:49;9;8;
73565;PMS5003;61846;52.970;-3.168;2023-09-30T08:00:15;14;10;
73565;PMS5003;61846;52.970;-3.168;2023-09-30T08:02:40;8;7;
73565;PMS5003;61846;52.970;-3.168;2023-09-30T08:05:06;12;7;
73565;PMS5003;61846;52.970;-3.168;2023-09-30T08:07:31;8;8;
73565;PMS5003;61846;52.970;-3.168;2023-09-30T08:09:57;9;5;
73565;PMS5003;61846;52.970;-3.168;2023-09-30T08:12:22;9;5;
73565;PMS5003;61846;52.970;-3.168;2023-09-30T08:14:48;6;5;
73565;PMS5003;61846;52.970;-3.168;2023-09-30T08:17:13;4;4;
73565;PMS5003;61846;52.970;-3.168;2023-09-30T08:19:39;15;11;
73565;PMS5003;61846;52.970;-3.168;2023-09-30T08:22:04;3;3;
73565;PMS5003;61846;52.970;-3.168;2023-09-30T08:24:29;9;4;
73565;PMS5003;61846;52.970;-3.168;2023-09-30T08:26:55;5;4;
73565;PMS5003;61846;52.970;-3.168;2023-09-30T08:29:20;4;4;
73565;PMS5003;61846;52.970;-3.168;2023-09-30T08:31:46;4;4;
73565;PMS5003;61846;52.970;-3.168;2023-09-30T08:34:11;5;3;
73565;PMS5003;61846;52.970;-3.168;2023-09-30T08:36:36;2;2;
73565;PMS5003;61846;52.970;-3.168;2023-09-30T08:39:02;3;3;
73565;PMS5003;61846;52.970;-3.168;2023-09-30T08:41:30;4;4;
73565;PMS5003;61846;52.970;-3.168;2023-09-30T08:43:53;6;6;
73565;PMS5003;61846;52.970;-3.168;2023-09-30T08:46:18;4;2;
73565;PMS5003;61846;52.970;-3.168;2023-09-30T08:48:43;7;4;
73565;PMS5003;61846;52.970;-3.168;2023-09-30T08:51:09;5;3;
73565;PMS5003;61846;52.970;-3.168;2023-09-30T08:53:34;2;2;
73565;PMS5003;61846;52.970;-3.168;2023-09-30T08:56:00;4;1;
73565;PMS5003;61846;52.970;-3.168;2023-09-30T08:58:26;5;5;
73565;PMS5003;61846;52.970;-3.168;2023-09-30T09:00:50;2;2;
73565;PMS5003;61846;52.970;-3.168;2023-09-30T09:03:18;5;3;
73565;PMS5003;61846;52.970;-3.168;2023-09-30T09:05:42;9;6;
73565;PMS5003;61846;52.970;-3.168;2023-09-30T09:08:07;6;3;
73565;PMS5003;61846;52.970;-3.168;2023-09-30T09:10:32;4;2;
73565;PMS5003;61846;52.970;-3.168;2023-09-30T09:12:58;3;3;
73565;PMS5003;61846;52.970;-3.168;2023-09-30T09:15:23;4;3;
73565;PMS5003;61846;52.970;-3.168;2023-09-30T09:17:48;6;3;
73565;PMS5003;61846;52.970;-3.168;2023-09-30T09:20:16;2;0;
73565;PMS5003;61846;52.970;-3.168;2023-09-30T09:22:40;4;4;
73565;PMS5003;61846;52.970;-3.168;2023-09-30T09:25:05;4;3;
73565;PMS5003;61846;52.970;-3.168;2023-09-30T09:27:30;7;5;
73565;PMS5003;61846;52.970;-3.168;2023-09-30T09:29:56;9;8;
73565;PMS5003;61846;52.970;-3.168;2023-09-30T09:32:21;7;6;
73565;PMS5003;61846;52.970;-3.168;2023-09-30T09:34:59;5;3;
73565;PMS5003;61846;52.970;-3.168;2023-09-30T09:37:14;5;3;
73565;PMS5003;61846;52.970;-3.168;2023-09-30T09:39:37;6;3;
73565;PMS5003;61846;52.970;-3.168;2023-09-30T09:42:03;3;1;
73565;PMS5003;61846;52.970;-3.168;2023-09-30T09:44:28;5;3;
73565;PMS5003;61846;52.970;-3.168;2023-09-30T09:46:53;2;2;
73565;PMS5003;61846;52.970;-3.168;2023-09-30T09:49:19;6;5;
73565;PMS5003;61846;52.970;-3.168;2023-09-30T09:51:45;10;6;
73565;PMS5003;61846;52.970;-3.168;2023-09-30T09:54:10;4;2;
73565;PMS5003;61846;52.970;-3.168;2023-09-30T09:56:35;3;3;
73565;PMS5003;61846;52.970;-3.168;2023-09-30T09:59:01;10;6;
73565;PMS5003;61846;52.970;-3.168;2023-09-30T10:01:26;3;3;
73565;PMS5003;61846;52.970;-3.168;2023-09-30T10:03:51;3;2;
73565;PMS5003;61846;52.970;-3.168;2023-09-30T10:06:17;9;6;
73565;PMS5003;61846;52.970;-3.168;2023-09-30T10:08:43;4;3;
73565;PMS5003;61846;52.970;-3.168;2023-09-30T10:11:08;2;1;
73565;PMS5003;61846;52.970;-3.168;2023-09-30T10:15:59;4;2;
73565;PMS5003;61846;52.970;-3.168;2023-09-30T10:18:24;3;1;
73565;PMS5003;61846;52.970;-3.168;2023-09-30T10:20:50;4;1;
73565;PMS5003;61846;52.970;-3.168;2023-09-30T10:23:19;4;3;
73565;PMS5003;61846;52.970;-3.168;2023-09-30T10:25:40;8;2;
73565;PMS5003;61846;52.970;-3.168;2023-09-30T10:30:31;2;1;
73565;PMS5003;61846;52.970;-3.168;2023-09-30T10:37:48;4;4;
73565;PMS5003;61846;52.970;-3.168;2023-09-30T10:42:45;5;3;
73565;PMS5003;61846;52.970;-3.168;2023-09-30T10:45:04;3;2;
73565;PMS5003;61846;52.970;-3.168;2023-09-30T10:49:54;5;3;
73565;PMS5003;61846;52.970;-3.168;2023-09-30T10:52:21;5;5;
73565;PMS5003;61846;52.970;-3.168;2023-09-30T10:54:45;2;2;
73565;PMS5003;61846;52.970;-3.168;2023-09-30T10:57:11;4;1;
73565;PMS5003;61846;52.970;-3.168;2023-09-30T10:59:36;4;3;
73565;PMS5003;61846;52.970;-3.168;2023-09-30T11:02:01;4;2;
73565;PMS5003;61846;52.970;-3.168;2023-09-30T11:04:26;6;4;
73565;PMS5003;61846;52.970;-3.168;2023-09-30T11:06:52;4;4;
73565;PMS5003;61846;52.970;-3.168;2023-09-30T11:09:17;6;4;
73565;PMS5003;61846;52.970;-3.168;2023-09-30T11:11:44;12;6;
73565;PMS5003;61846;52.970;-3.168;2023-09-30T11:14:16;6;5;
73565;PMS5003;61846;52.970;-3.168;2023-09-30T11:16:40;4;3;
73565;PMS5003;61846;52.970;-3.168;2023-09-30T11:18:59;6;4;
73565;PMS5003;61846;52.970;-3.168;2023-09-30T11:21:24;4;4;
73565;PMS5003;61846;52.970;-3.168;2023-09-30T11:23:49;10;5;
73565;PMS5003;61846;52.970;-3.168;2023-09-30T11:26:15;4;3;
73565;PMS5003;61846;52.970;-3.168;2023-09-30T11:28:41;4;2;
73565;PMS5003;61846;52.970;-3.168;2023-09-30T11:31:07;6;4;
73565;PMS5003;61846;52.970;-3.168;2023-09-30T11:33:31;6;4;
73565;PMS5003;61846;52.970;-3.168;2023-09-30T11:35:57;8;4;
73565;PMS5003;61846;52.970;-3.168;2023-09-30T11:38:22;8;6;
73565;PMS5003;61846;52.970;-3.168;2023-09-30T11:43:13;7;4;
73565;PMS5003;61846;52.970;-3.168;2023-09-30T11:45:38;4;4;
73565;PMS5003;61846;52.970;-3.168;2023-09-30T11:52:54;11;9;
73565;PMS5003;61846;52.970;-3.168;2023-09-30T11:55:19;13;12;
73565;PMS5003;61846;52.970;-3.168;2023-09-30T11:57:44;9;9;
73565;PMS5003;61846;52.970;-3.168;2023-09-30T12:00:10;10;9;
73565;PMS5003;61846;52.970;-3.168;2023-09-30T12:02:36;6;5;
73565;PMS5003;61846;52.970;-3.168;2023-09-30T12:05:00;10;8;
73565;PMS5003;61846;52.970;-3.168;2023-09-30T12:07:26;6;6;
73565;PMS5003;61846;52.970;-3.168;2023-09-30T12:09:51;8;8;
73565;PMS5003;61846;52.970;-3.168;2023-09-30T12:12:16;7;6;
73565;PMS5003;61846;52.970;-3.168;2023-09-30T12:14:42;6;5;
73565;PMS5003;61846;52.970;-3.168;2023-09-30T12:17:07;11;9;
73565;PMS5003;61846;52.970;-3.168;2023-09-30T12:19:33;10;7;
73565;PMS5003;61846;52.970;-3.168;2023-09-30T12:21:58;6;6;
73565;PMS5003;61846;52.970;-3.168;2023-09-30T12:24:23;8;5;
73565;PMS5003;61846;52.970;-3.168;2023-09-30T12:26:49;9;6;
73565;PMS5003;61846;52.970;-3.168;2023-09-30T12:29:13;12;11;
73565;PMS5003;61846;52.970;-3.168;2023-09-30T12:31:39;7;7;
73565;PMS5003;61846;52.970;-3.168;2023-09-30T12:34:04;6;6;
73565;PMS5003;61846;52.970;-3.168;2023-09-30T12:36:30;7;6;
73565;PMS5003;61846;52.970;-3.168;2023-09-30T12:38:55;5;5;
73565;PMS5003;61846;52.970;-3.168;2023-09-30T12:41:20;5;5;
73565;PMS5003;61846;52.970;-3.168;2023-09-30T12:43:45;5;5;
73565;PMS5003;61846;52.970;-3.168;2023-09-30T12:46:11;5;3;
73565;PMS5003;61846;52.970;-3.168;2023-09-30T12:48:36;7;5;
73565;PMS5003;61846;52.970;-3.168;2023-09-30T12:51:02;6;6;
73565;PMS5003;61846;52.970;-3.168;2023-09-30T12:53:27;7;4;
73565;PMS5003;61846;52.970;-3.168;2023-09-30T12:55:52;6;4;
73565;PMS5003;61846;52.970;-3.168;2023-09-30T12:58:18;8;7;
73565;PMS5003;61846;52.970;-3.168;2023-09-30T13:00:43;4;4;
73565;PMS5003;61846;52.970;-3.168;2023-09-30T13:03:09;7;4;
73565;PMS5003;61846;52.970;-3.168;2023-09-30T13:05:34;5;4;
73565;PMS5003;61846;52.970;-3.168;2023-09-30T13:08:00;10;6;
73565;PMS5003;61846;52.970;-3.168;2023-09-30T13:10:25;10;10;
73565;PMS5003;61846;52.970;-3.168;2023-09-30T13:12:51;6;6;
73565;PMS5003;61846;52.970;-3.168;2023-09-30T13:15:16;14;12;
73565;PMS5003;61846;52.970;-3.168;2023-09-30T13:17:42;11;11;
73565;PMS5003;61846;52.970;-3.168;2023-09-30T13:20:07;6;6;
73565;PMS5003;61846;52.970;-3.168;2023-09-30T13:22:31;14;8;
73565;PMS5003;61846;52.970;-3.168;2023-09-30T13:25:00;18;11;
73565;PMS5003;61846;52.970;-3.168;2023-09-30T13:27:23;7;4;
73565;PMS5003;61846;52.970;-3.168;2023-09-30T13:29:48;8;7;
73565;PMS5003;61846;52.970;-3.168;2023-09-30T13:32:13;6;6;
73565;PMS5003;61846;52.970;-3.168;2023-09-30T13:34:38;7;7;
73565;PMS5003;61846;52.970;-3.168;2023-09-30T13:37:04;9;6;
73565;PMS5003;61846;52.970;-3.168;2023-09-30T13:39:29;10;4;
73565;PMS5003;61846;52.970;-3.168;2023-09-30T13:41:55;5;3;
73565;PMS5003;61846;52.970;-3.168;2023-09-30T13:44:20;10;10;
73565;PMS5003;61846;52.970;-3.168;2023-09-30T13:46:46;12;11;
73565;PMS5003;61846;52.970;-3.168;2023-09-30T13:49:11;11;8;
73565;PMS5003;61846;52.970;-3.168;2023-09-30T13:51:37;17;14;
73565;PMS5003;61846;52.970;-3.168;2023-09-30T13:54:02;9;8;
73565;PMS5003;61846;52.970;-3.168;2023-09-30T13:56:28;7;5;
73565;PMS5003;61846;52.970;-3.168;2023-09-30T13:58:53;7;5;
73565;PMS5003;61846;52.970;-3.168;2023-09-30T14:01:18;12;10;
73565;PMS5003;61846;52.970;-3.168;2023-09-30T14:03:44;10;8;
73565;PMS5003;61846;52.970;-3.168;2023-09-30T14:06:09;7;6;
73565;PMS5003;61846;52.970;-3.168;2023-09-30T14:08:34;13;11;
73565;PMS5003;61846;52.970;-3.168;2023-09-30T14:11:00;12;10;
73565;PMS5003;61846;52.970;-3.168;2023-09-30T14:13:25;14;13;
73565;PMS5003;61846;52.970;-3.168;2023-09-30T14:15:51;38;26;
73565;PMS5003;61846;52.970;-3.168;2023-09-30T14:18:16;15;11;
73565;PMS5003;61846;52.970;-3.168;2023-09-30T14:20:42;18;15;
73565;PMS5003;61846;52.970;-3.168;2023-09-30T14:23:07;26;20;
73565;PMS5003;61846;52.970;-3.168;2023-09-30T14:25:33;8;8;
73565;PMS5003;61846;52.970;-3.168;2023-09-30T14:27:58;20;15;
73565;PMS5003;61846;52.970;-3.168;2023-09-30T14:30:23;18;18;
73565;PMS5003;61846;52.970;-3.168;2023-09-30T14:32:49;21;11;
73565;PMS5003;61846;52.970;-3.168;2023-09-30T14:35:15;12;10;
73565;PMS5003;61846;52.970;-3.168;2023-09-30T14:37:40;9;9;
73565;PMS5003;61846;52.970;-3.168;2023-09-30T14:40:06;11;10;
73565;PMS5003;61846;52.970;-3.168;2023-09-30T14:42:31;15;15;
73565;PMS5003;61846;52.970;-3.168;2023-09-30T14:44:56;63;61;
73565;PMS5003;61846;52.970;-3.168;2023-09-30T14:47:22;46;39;
73565;PMS5003;61846;52.970;-3.168;2023-09-30T14:49:47;14;13;
73565;PMS5003;61846;52.970;-3.168;2023-09-30T14:52:13;40;29;
73565;PMS5003;61846;52.970;-3.168;2023-09-30T14:54:38;7;7;
73565;PMS5003;61846;52.970;-3.168;2023-09-30T14:57:03;24;18;
73565;PMS5003;61846;52.970;-3.168;2023-09-30T14:59:28;20;15;
73565;PMS5003;61846;52.970;-3.168;2023-09-30T15:01:54;36;29;
73565;PMS5003;61846;52.970;-3.168;2023-09-30T15:04:19;4;4;
73565;PMS5003;61846;52.970;-3.168;2023-09-30T15:06:44;6;6;
73565;PMS5003;61846;52.970;-3.168;2023-09-30T15:09:10;11;8;
73565;PMS5003;61846;52.970;-3.168;2023-09-30T15:11:35;5;5;
73565;PMS5003;61846;52.970;-3.168;2023-09-30T15:14:01;8;8;
73565;PMS5003;61846;52.970;-3.168;2023-09-30T15:16:26;8;8;
73565;PMS5003;61846;52.970;-3.168;2023-09-30T15:18:52;8;7;
73565;PMS5003;61846;52.970;-3.168;2023-09-30T15:21:17;10;9;
73565;PMS5003;61846;52.970;-3.168;2023-09-30T15:23:43;4;4;
73565;PMS5003;61846;52.970;-3.168;2023-09-30T15:26:08;11;8;
73565;PMS5003;61846;52.970;-3.168;2023-09-30T15:28:33;12;12;
73565;PMS5003;61846;52.970;-3.168;2023-09-30T15:30:59;16;15;
73565;PMS5003;61846;52.970;-3.168;2023-09-30T15:33:24;12;12;
73565;PMS5003;61846;52.970;-3.168;2023-09-30T15:35:49;13;11;
73565;PMS5003;61846;52.970;-3.168;2023-09-30T15:38:15;4;4;
73565;PMS5003;61846;52.970;-3.168;2023-09-30T15:40:50;23;20;
73565;PMS5003;61846;52.970;-3.168;2023-09-30T15:43:06;211;194;
73565;PMS5003;61846;52.970;-3.168;2023-09-30T15:45:31;186;165;
73565;PMS5003;61846;52.970;-3.168;2023-09-30T15:47:57;153;142;
73565;PMS5003;61846;52.970;-3.168;2023-09-30T15:50:23;84;70;
73565;PMS5003;61846;52.970;-3.168;2023-09-30T15:52:48;119;106;
73565;PMS5003;61846;52.970;-3.168;2023-09-30T15:55:13;55;49;
73565;PMS5003;61846;52.970;-3.168;2023-09-30T15:57:39;65;61;
73565;PMS5003;61846;52.970;-3.168;2023-09-30T16:00:05;61;56;
73565;PMS5003;61846;52.970;-3.168;2023-09-30T16:02:29;16;16;
73565;PMS5003;61846;52.970;-3.168;2023-09-30T16:04:54;20;13;
73565;PMS5003;61846;52.970;-3.168;2023-09-30T16:07:19;10;8;
73565;PMS5003;61846;52.970;-3.168;2023-09-30T16:09:45;10;8;
73565;PMS5003;61846;52.970;-3.168;2023-09-30T16:12:11;16;16;
73565;PMS5003;61846;52.970;-3.168;2023-09-30T16:14:36;7;7;
73565;PMS5003;61846;52.970;-3.168;2023-09-30T16:17:02;7;7;
73565;PMS5003;61846;52.970;-3.168;2023-09-30T16:19:27;11;11;
73565;PMS5003;61846;52.970;-3.168;2023-09-30T16:21:52;9;9;
73565;PMS5003;61846;52.970;-3.168;2023-09-30T16:24:18;12;12;
73565;PMS5003;61846;52.970;-3.168;2023-09-30T16:26:44;15;14;
73565;PMS5003;61846;52.970;-3.168;2023-09-30T16:29:08;16;15;
73565;PMS5003;61846;52.970;-3.168;2023-09-30T16:31:34;10;10;
73565;PMS5003;61846;52.970;-3.168;2023-09-30T16:34:00;15;13;
73565;PMS5003;61846;52.970;-3.168;2023-09-30T16:36:25;34;25;
73565;PMS5003;61846;52.970;-3.168;2023-09-30T16:38:51;171;154;